Time;durP1;ratioP1;P1;durP2;ratioP2;P2;SDS_P1;SDS_P2;PMS_P1;PMS_P2;Temp;Humidity;BMP_temperature;BMP_pressure;BME280_temperature;BME280_humidity;BME280_pressure;Samples;Min_cycle;Max_cycle;Signal;HPM_P1;HPM_P2
2022/01/30 00:01:41;;;;;;;8.95;6.40;;;;;;;;;;5005068;28;20037;-33
2022/01/30 00:04:07;;;;;;;9.65;6.90;;;;;;;;;;5004780;28;20041;-34
2022/01/30 00:06:32;;;;;;;8.82;6.63;;;;;;;;;;5005048;28;20062;-36
2022/01/30 00:08:58;;;;;;;9.68;6.63;;;;;;;;;;5005219;28;20508;-37
2022/01/30 00:11:28;;;;;;;8.68;6.32;;;;;;;;;;5003174;28;20528;-34
2022/01/30 00:13:54;;;;;;;9.85;6.70;;;;;;;;;;5004704;28;20032;-32
2022/01/30 00:16:22;;;;;;;7.72;6.20;;;;;;;;;;5004983;28;20440;-35
2022/01/30 00:18:58;;;;;;;8.07;5.93;;;;;;;;;;5004899;28;20548;-38
2022/01/30 00:24:04;;;;;;;7.35;5.53;;;;;;;;;;5007931;28;20184;-33
2022/01/30 00:26:32;;;;;;;7.70;5.90;;;;;;;;;;5008630;28;20057;-37
2022/01/30 00:28:58;;;;;;;7.53;5.35;;;;;;;;;;5008945;28;20092;-35
2022/01/30 00:31:25;;;;;;;7.25;5.55;;;;;;;;;;5008606;28;20030;-30
2022/01/30 00:33:51;;;;;;;7.53;5.60;;;;;;;;;;5008607;28;20100;-33
2022/01/30 00:36:17;;;;;;;7.80;5.60;;;;;;;;;;5008627;28;20448;-33
2022/01/30 00:38:42;;;;;;;7.47;5.55;;;;;;;;;;5008600;28;20022;-34
2022/01/30 00:41:08;;;;;;;6.82;4.93;;;;;;;;;;5008411;28;20431;-33
2022/01/30 00:43:33;;;;;;;6.97;5.03;;;;;;;;;;5008572;28;20033;-35
2022/01/30 00:45:59;;;;;;;6.18;4.95;;;;;;;;;;4995931;28;20034;-30
2022/01/30 00:48:24;;;;;;;6.22;4.80;;;;;;;;;;4988990;28;20089;-34
2022/01/30 00:50:50;;;;;;;5.68;4.55;;;;;;;;;;4989041;28;20109;-33
2022/01/30 00:53:15;;;;;;;6.13;4.85;;;;;;;;;;4988866;28;20019;-34
2022/01/30 00:55:41;;;;;;;6.03;4.55;;;;;;;;;;4988802;28;20041;-33
2022/01/30 00:58:06;;;;;;;6.10;4.63;;;;;;;;;;4988411;28;20041;-37
2022/01/30 01:00:32;;;;;;;6.72;4.97;;;;;;;;;;4988758;28;20340;-36
2022/01/30 01:02:58;;;;;;;6.78;4.90;;;;;;;;;;4988611;28;20084;-32
2022/01/30 01:05:24;;;;;;;6.82;4.63;;;;;;;;;;4988645;28;20042;-35
2022/01/30 01:07:52;;;;;;;5.75;4.38;;;;;;;;;;4988363;28;20034;-36
2022/01/30 01:10:29;;;;;;;6.03;4.35;;;;;;;;;;4988517;28;20071;-35
2022/01/30 01:23:24;;;;;;;5.90;4.28;;;;;;;;;;4988251;28;20065;-35
2022/01/30 01:23:49;;;;;;;6.10;5.03;;;;;;;;;;5000925;28;20034;-35
2022/01/30 01:26:14;;;;;;;6.30;4.55;;;;;;;;;;4988040;28;20041;-32
2022/01/30 01:28:41;;;;;;;5.95;4.65;;;;;;;;;;4988001;28;20026;-34
2022/01/30 01:31:07;;;;;;;5.18;4.00;;;;;;;;;;4987078;28;20034;-30
2022/01/30 01:36:10;;;;;;;4.57;4.13;;;;;;;;;;4987473;28;20073;-37
2022/01/30 01:38:36;;;;;;;5.78;4.18;;;;;;;;;;4988120;28;20026;-32
2022/01/30 01:41:01;;;;;;;6.63;4.72;;;;;;;;;;4988114;28;20030;-34
2022/01/30 01:43:27;;;;;;;5.70;4.30;;;;;;;;;;4988081;28;20081;-36
2022/01/30 01:45:55;;;;;;;5.43;4.22;;;;;;;;;;4999716;28;20631;-34
2022/01/30 01:48:20;;;;;;;5.43;4.20;;;;;;;;;;5007148;28;20538;-34
2022/01/30 01:50:53;;;;;;;6.18;4.60;;;;;;;;;;5007526;28;20022;-30
2022/01/30 01:53:20;;;;;;;6.10;4.10;;;;;;;;;;5007070;28;20026;-34
2022/01/30 01:55:46;;;;;;;4.68;3.70;;;;;;;;;;5007329;28;20057;-36
2022/01/30 01:58:11;;;;;;;5.15;4.15;;;;;;;;;;5007133;28;20033;-35
2022/01/30 02:00:37;;;;;;;5.35;3.85;;;;;;;;;;5007166;28;20527;-35
2022/01/30 02:03:03;;;;;;;5.75;3.72;;;;;;;;;;5006966;28;20197;-35
2022/01/30 02:05:31;;;;;;;4.72;3.95;;;;;;;;;;5006872;28;20432;-35
2022/01/30 02:24:35;;;;;;;4.60;3.63;;;;;;;;;;5006483;28;20076;-35
2022/01/30 02:27:01;;;;;;;4.25;3.22;;;;;;;;;;5006618;28;20036;-34
2022/01/30 02:29:27;;;;;;;4.43;3.50;;;;;;;;;;5006403;28;20084;-32
2022/01/30 02:31:56;;;;;;;4.30;3.35;;;;;;;;;;5005935;28;20017;-35
2022/01/30 02:34:28;;;;;;;3.92;3.00;;;;;;;;;;5005708;28;20061;-34
2022/01/30 02:36:54;;;;;;;5.60;3.50;;;;;;;;;;5006759;28;20057;-32
2022/01/30 02:39:20;;;;;;;4.18;3.25;;;;;;;;;;5006531;28;20436;-37
2022/01/30 02:41:46;;;;;;;4.07;3.10;;;;;;;;;;5006118;28;20499;-36
2022/01/30 02:44:34;;;;;;;4.43;3.42;;;;;;;;;;5006209;28;20034;-34
2022/01/30 02:47:05;;;;;;;4.07;3.30;;;;;;;;;;4990857;28;20084;-33
2022/01/30 02:49:56;;;;;;;4.45;2.90;;;;;;;;;;4987093;28;21135;-35
2022/01/30 02:52:22;;;;;;;3.95;2.80;;;;;;;;;;4986438;28;20049;-34
2022/01/30 02:54:48;;;;;;;4.43;3.25;;;;;;;;;;4986416;28;20033;-35
2022/01/30 02:57:13;;;;;;;4.43;3.42;;;;;;;;;;4986172;28;20023;-36
2022/01/30 02:59:39;;;;;;;4.53;2.85;;;;;;;;;;4986665;28;20100;-35
2022/01/30 03:02:05;;;;;;;3.65;2.85;;;;;;;;;;4986329;28;20034;-34
2022/01/30 03:04:30;;;;;;;5.38;3.28;;;;;;;;;;4986555;28;20042;-31
2022/01/30 03:06:56;;;;;;;3.67;2.83;;;;;;;;;;4986516;28;20480;-35
2022/01/30 03:09:21;;;;;;;3.78;3.00;;;;;;;;;;4986072;28;20046;-34
2022/01/30 03:11:47;;;;;;;3.83;2.95;;;;;;;;;;4986337;28;20031;-34
2022/01/30 03:14:13;;;;;;;3.60;2.90;;;;;;;;;;4986185;28;20046;-32
2022/01/30 03:16:38;;;;;;;3.92;3.00;;;;;;;;;;4986176;28;20052;-35
2022/01/30 03:19:04;;;;;;;3.58;2.63;;;;;;;;;;4986582;28;20030;-33
2022/01/30 03:21:29;;;;;;;4.70;2.92;;;;;;;;;;4985991;28;20026;-34
2022/01/30 03:23:55;;;;;;;3.80;2.80;;;;;;;;;;4986373;28;20030;-34
2022/01/30 03:26:20;;;;;;;3.47;2.72;;;;;;;;;;4985827;28;20557;-36
2022/01/30 03:28:48;;;;;;;3.88;2.95;;;;;;;;;;4986142;28;20042;-36
2022/01/30 03:31:14;;;;;;;3.58;2.63;;;;;;;;;;4985772;28;20030;-32
2022/01/30 03:33:40;;;;;;;4.07;3.00;;;;;;;;;;4985728;28;20129;-33
2022/01/30 03:36:05;;;;;;;3.55;2.55;;;;;;;;;;4985741;28;20552;-36
2022/01/30 03:38:31;;;;;;;4.22;3.10;;;;;;;;;;4985906;28;20034;-31
2022/01/30 03:40:57;;;;;;;3.67;2.75;;;;;;;;;;4985543;28;20477;-31
2022/01/30 03:43:22;;;;;;;3.45;2.60;;;;;;;;;;4985836;28;20034;-31
2022/01/30 03:45:48;;;;;;;3.53;2.47;;;;;;;;;;4998412;28;20044;-34
2022/01/30 03:48:14;;;;;;;2.92;2.38;;;;;;;;;;5004967;28;20030;-34
2022/01/30 03:50:42;;;;;;;3.30;2.47;;;;;;;;;;5005293;28;20029;-36
2022/01/30 03:53:08;;;;;;;2.58;2.22;;;;;;;;;;5005022;28;20053;-37
2022/01/30 03:55:33;;;;;;;3.60;2.80;;;;;;;;;;5004901;28;20061;-36
2022/01/30 03:57:59;;;;;;;3.25;2.35;;;;;;;;;;4998603;28;20429;-33
2022/01/30 04:00:25;;;;;;;2.70;2.15;;;;;;;;;;5004899;28;20026;-35
2022/01/30 04:02:50;;;;;;;3.83;2.50;;;;;;;;;;5001236;28;20033;-31
2022/01/30 04:05:16;;;;;;;2.60;2.15;;;;;;;;;;4998639;28;20120;-33
2022/01/30 04:07:41;;;;;;;2.70;2.10;;;;;;;;;;5017674;28;20159;-36
2022/01/30 04:10:07;;;;;;;2.45;1.92;;;;;;;;;;5005665;28;20452;-35
2022/01/30 04:12:33;;;;;;;4.43;2.20;;;;;;;;;;5004781;28;20105;-35
2022/01/30 04:14:59;;;;;;;3.63;2.53;;;;;;;;;;5003783;28;20481;-37
2022/01/30 04:17:24;;;;;;;3.10;2.03;;;;;;;;;;5005238;28;20030;-31
2022/01/30 04:19:50;;;;;;;2.58;2.10;;;;;;;;;;5004620;28;20080;-38
2022/01/30 04:22:16;;;;;;;3.70;2.17;;;;;;;;;;5004872;28;20157;-35
2022/01/30 04:24:41;;;;;;;5.50;2.30;;;;;;;;;;5005118;28;20022;-33
2022/01/30 04:27:07;;;;;;;7.88;2.40;;;;;;;;;;5004975;28;20030;-35
2022/01/30 04:29:32;;;;;;;3.60;2.30;;;;;;;;;;5004967;28;20104;-37
2022/01/30 04:31:58;;;;;;;6.05;2.45;;;;;;;;;;5004779;28;20391;-35
2022/01/30 04:34:25;;;;;;;4.63;2.30;;;;;;;;;;5004618;28;20038;-36
2022/01/30 04:58:31;;;;;;;5.55;2.60;;;;;;;;;;5011990;28;20699;-37
2022/01/30 05:05:58;;;;;;;5.90;3.08;;;;;;;;;;5024083;28;20511;-37
2022/01/30 05:08:23;;;;;;;4.80;3.03;;;;;;;;;;5024487;28;20025;-37
2022/01/30 05:10:49;;;;;;;7.40;3.13;;;;;;;;;;5023053;28;20022;-35
2022/01/30 05:13:19;;;;;;;4.93;2.88;;;;;;;;;;5015047;28;20026;-34
2022/01/30 05:15:44;;;;;;;4.95;2.97;;;;;;;;;;5027399;28;20045;-33
2022/01/30 05:18:10;;;;;;;4.22;3.08;;;;;;;;;;5027428;28;20037;-34
2022/01/30 05:20:36;;;;;;;5.03;3.25;;;;;;;;;;5027497;28;20025;-34
2022/01/30 05:23:02;;;;;;;6.82;3.13;;;;;;;;;;5010138;28;20661;-32
2022/01/30 05:25:28;;;;;;;4.82;3.25;;;;;;;;;;5006830;28;20030;-36
2022/01/30 05:27:54;;;;;;;5.93;3.58;;;;;;;;;;5006529;28;20069;-34
2022/01/30 05:30:19;;;;;;;6.07;3.40;;;;;;;;;;5006399;28;20525;-30
2022/01/30 05:32:45;;;;;;;4.88;3.42;;;;;;;;;;5006370;28;20168;-34
2022/01/30 05:35:11;;;;;;;5.70;3.25;;;;;;;;;;5006254;28;20030;-37
2022/01/30 05:37:39;;;;;;;6.82;3.45;;;;;;;;;;5006160;28;20057;-36
2022/01/30 05:40:05;;;;;;;5.68;3.53;;;;;;;;;;5006239;28;20680;-35
2022/01/30 05:42:31;;;;;;;5.40;3.80;;;;;;;;;;5006444;28;20036;-35
2022/01/30 05:45:08;;;;;;;5.55;3.38;;;;;;;;;;4997836;28;20038;-37
2022/01/30 05:47:37;;;;;;;6.72;3.40;;;;;;;;;;4986747;28;20692;-33
2022/01/30 05:50:03;;;;;;;4.90;3.67;;;;;;;;;;4984928;28;20023;-34
2022/01/30 05:52:29;;;;;;;5.45;3.42;;;;;;;;;;4985937;28;20041;-30
2022/01/30 05:54:54;;;;;;;5.82;3.90;;;;;;;;;;4986709;28;20026;-35
2022/01/30 05:57:20;;;;;;;6.65;4.07;;;;;;;;;;4986521;28;20366;-31
2022/01/30 05:59:45;;;;;;;8.40;4.53;;;;;;;;;;4986678;28;20420;-36
2022/01/30 06:02:11;;;;;;;7.43;4.50;;;;;;;;;;4987566;28;20030;-36
2022/01/30 06:04:37;;;;;;;7.20;4.22;;;;;;;;;;4987568;28;20069;-35
2022/01/30 06:07:02;;;;;;;7.07;4.53;;;;;;;;;;4988126;28;20050;-38
2022/01/30 06:09:28;;;;;;;8.73;4.72;;;;;;;;;;4987680;28;20541;-39
2022/01/30 06:11:54;;;;;;;7.55;4.80;;;;;;;;;;4987685;28;20481;-37
2022/01/30 06:14:20;;;;;;;8.52;4.80;;;;;;;;;;4987366;28;20485;-33
2022/01/30 06:16:45;;;;;;;7.32;4.18;;;;;;;;;;4987327;28;20026;-35
2022/01/30 06:19:11;;;;;;;6.47;4.65;;;;;;;;;;4987557;28;20030;-34
2022/01/30 06:21:36;;;;;;;6.97;4.75;;;;;;;;;;4986885;28;20030;-37
2022/01/30 06:24:02;;;;;;;7.07;3.97;;;;;;;;;;4987318;28;20117;-33
2022/01/30 06:26:28;;;;;;;9.68;5.35;;;;;;;;;;4987070;28;20057;-32
2022/01/30 06:28:54;;;;;;;8.02;5.15;;;;;;;;;;4987236;28;20038;-33
2022/01/30 06:31:19;;;;;;;7.30;4.40;;;;;;;;;;4987502;28;20042;-37
2022/01/30 06:33:45;;;;;;;7.80;4.90;;;;;;;;;;4986949;28;20505;-35
2022/01/30 06:36:10;;;;;;;7.95;4.88;;;;;;;;;;4986947;28;20394;-36
2022/01/30 06:38:36;;;;;;;8.85;5.20;;;;;;;;;;4986718;28;20044;-36
2022/01/30 06:41:01;;;;;;;7.40;4.88;;;;;;;;;;4986463;28;20041;-34
2022/01/30 06:43:30;;;;;;;8.00;5.38;;;;;;;;;;4986350;28;20030;-33
2022/01/30 06:45:56;;;;;;;7.55;4.82;;;;;;;;;;4986701;28;20073;-36
2022/01/30 06:48:22;;;;;;;7.05;5.00;;;;;;;;;;4986405;28;20039;-33
2022/01/30 06:50:48;;;;;;;8.38;5.15;;;;;;;;;;4986556;28;20027;-33
2022/01/30 06:53:13;;;;;;;8.43;5.70;;;;;;;;;;4986386;28;20382;-32
2022/01/30 06:55:42;;;;;;;8.75;5.45;;;;;;;;;;4987010;28;20500;-31
2022/01/30 06:58:12;;;;;;;8.43;5.10;;;;;;;;;;4985621;28;20547;-33
2022/01/30 07:00:37;;;;;;;10.30;5.78;;;;;;;;;;4986625;28;20038;-31
2022/01/30 07:03:03;;;;;;;8.27;5.75;;;;;;;;;;4986613;28;20378;-33
2022/01/30 07:05:28;;;;;;;7.72;5.10;;;;;;;;;;4986122;28;20057;-34
2022/01/30 07:07:54;;;;;;;7.78;5.35;;;;;;;;;;4986244;28;20037;-38
2022/01/30 07:10:20;;;;;;;10.02;6.63;;;;;;;;;;4986057;28;20077;-32
2022/01/30 07:12:46;;;;;;;8.40;6.32;;;;;;;;;;4986247;28;20485;-35
2022/01/30 07:15:11;;;;;;;7.85;5.55;;;;;;;;;;4986348;28;20089;-33
2022/01/30 07:17:37;;;;;;;8.90;6.43;;;;;;;;;;4986123;28;20042;-33
2022/01/30 07:20:04;;;;;;;9.35;6.47;;;;;;;;;;4985875;28;20620;-32
2022/01/30 07:22:29;;;;;;;13.13;6.40;;;;;;;;;;4986214;28;20030;-35
2022/01/30 07:24:55;;;;;;;8.85;6.25;;;;;;;;;;4986384;28;20608;-34
2022/01/30 07:27:20;;;;;;;9.85;6.20;;;;;;;;;;4986315;28;20070;-33
2022/01/30 07:29:46;;;;;;;10.15;6.85;;;;;;;;;;4986022;28;20560;-38
2022/01/30 07:32:12;;;;;;;9.73;6.70;;;;;;;;;;4985150;28;20485;-35
2022/01/30 07:34:37;;;;;;;10.23;6.43;;;;;;;;;;4985642;28;20457;-33
2022/01/30 07:37:03;;;;;;;15.95;6.43;;;;;;;;;;4985713;28;20038;-36
2022/01/30 07:39:30;;;;;;;10.85;6.72;;;;;;;;;;4985817;28;20026;-31
2022/01/30 07:41:56;;;;;;;17.15;7.32;;;;;;;;;;4986013;28;20038;-30
2022/01/30 07:44:22;;;;;;;12.10;8.25;;;;;;;;;;4992327;28;20030;-33
2022/01/30 07:46:48;;;;;;;13.05;8.70;;;;;;;;;;5005402;28;20041;-33
2022/01/30 07:49:13;;;;;;;31.90;15.27;;;;;;;;;;5005181;28;20036;-29
2022/01/30 07:51:39;;;;;;;45.67;23.92;;;;;;;;;;5005409;28;20544;-32
2022/01/30 07:54:04;;;;;;;60.47;31.45;;;;;;;;;;5003879;28;20030;-29
2022/01/30 07:56:30;;;;;;;133.98;69.40;;;;;;;;;;5005218;28;20061;-35
2022/01/30 07:58:55;;;;;;;185.65;97.25;;;;;;;;;;5001144;28;20713;-34
2022/01/30 08:01:21;;;;;;;197.95;112.10;;;;;;;;;;4983415;28;20057;-35
2022/01/30 08:03:46;;;;;;;206.10;118.38;;;;;;;;;;4983474;28;20758;-31
2022/01/30 08:06:12;;;;;;;216.45;121.78;;;;;;;;;;4983381;28;20492;-38
2022/01/30 08:08:37;;;;;;;202.70;116.60;;;;;;;;;;4983329;28;20041;-32
2022/01/30 08:11:03;;;;;;;189.98;110.60;;;;;;;;;;4982014;28;20445;-33
2022/01/30 08:13:28;;;;;;;165.30;97.72;;;;;;;;;;4985595;28;20105;-36
2022/01/30 08:15:54;;;;;;;147.90;85.03;;;;;;;;;;4985135;28;20027;-31
2022/01/30 08:18:19;;;;;;;149.15;83.78;;;;;;;;;;4982968;28;20424;-31
2022/01/30 08:20:45;;;;;;;127.88;76.03;;;;;;;;;;4982433;28;20022;-34
2022/01/30 08:23:12;;;;;;;128.55;74.18;;;;;;;;;;5003039;28;20026;-32
2022/01/30 08:25:38;;;;;;;122.20;68.50;;;;;;;;;;5002634;28;20022;-30
2022/01/30 08:28:04;;;;;;;118.88;68.55;;;;;;;;;;5001057;28;20030;-36
2022/01/30 08:30:29;;;;;;;58.60;34.38;;;;;;;;;;5002575;28;20034;-33
2022/01/30 08:32:55;;;;;;;37.30;21.40;;;;;;;;;;5002987;28;20033;-29
2022/01/30 08:35:22;;;;;;;60.08;37.00;;;;;;;;;;5000757;28;20097;-36
2022/01/30 08:37:48;;;;;;;82.60;51.83;;;;;;;;;;4984731;28;20033;-36
2022/01/30 08:40:18;;;;;;;87.28;55.95;;;;;;;;;;5002082;28;20033;-32
2022/01/30 08:42:44;;;;;;;88.05;58.83;;;;;;;;;;5001507;28;20033;-33
2022/01/30 08:45:12;;;;;;;96.10;59.20;;;;;;;;;;4990753;28;20121;-31
2022/01/30 08:47:38;;;;;;;86.75;58.33;;;;;;;;;;4997783;28;20031;-36
2022/01/30 08:50:04;;;;;;;89.35;59.63;;;;;;;;;;5005382;28;20042;-32
2022/01/30 08:52:30;;;;;;;84.85;54.08;;;;;;;;;;5002096;28;20107;-32
2022/01/30 08:54:55;;;;;;;82.22;54.67;;;;;;;;;;5005742;28;20026;-33
2022/01/30 08:57:21;;;;;;;80.90;53.30;;;;;;;;;;4996086;28;20026;-36
2022/01/30 08:59:46;;;;;;;78.72;51.10;;;;;;;;;;5005268;28;20034;-32
2022/01/30 09:02:12;;;;;;;78.85;51.30;;;;;;;;;;5006005;28;20029;-30
2022/01/30 09:04:38;;;;;;;74.43;50.53;;;;;;;;;;5006099;28;20097;-33
2022/01/30 09:07:03;;;;;;;76.35;49.25;;;;;;;;;;5005805;28;20033;-30
2022/01/30 09:09:30;;;;;;;75.10;47.15;;;;;;;;;;5005718;28;20037;-33
2022/01/30 09:11:57;;;;;;;70.28;46.88;;;;;;;;;;5005414;28;20491;-37
2022/01/30 09:14:24;;;;;;;76.32;48.08;;;;;;;;;;4987075;28;20034;-34
2022/01/30 09:16:49;;;;;;;70.13;45.13;;;;;;;;;;4986581;28;20026;-37
2022/01/30 09:19:15;;;;;;;68.13;44.78;;;;;;;;;;4993595;28;20052;-34
2022/01/30 09:21:40;;;;;;;66.60;44.13;;;;;;;;;;4985419;28;20030;-33
2022/01/30 09:24:06;;;;;;;65.50;43.17;;;;;;;;;;4988054;28;20034;-31
2022/01/30 09:26:32;;;;;;;68.65;43.38;;;;;;;;;;4985209;28;20483;-32
2022/01/30 09:28:57;;;;;;;61.67;39.75;;;;;;;;;;4989684;28;20042;-32
2022/01/30 09:31:23;;;;;;;60.30;38.97;;;;;;;;;;4998026;28;20042;-30
2022/01/30 09:33:48;;;;;;;60.70;39.83;;;;;;;;;;4985243;28;20095;-34
2022/01/30 09:36:14;;;;;;;59.20;39.38;;;;;;;;;;4987493;28;20037;-37
2022/01/30 09:38:42;;;;;;;57.30;38.40;;;;;;;;;;5005015;28;20018;-32
2022/01/30 09:41:09;;;;;;;57.90;37.45;;;;;;;;;;5004800;28;20116;-34
2022/01/30 09:43:34;;;;;;;56.50;36.30;;;;;;;;;;5001819;28;20060;-32
2022/01/30 09:46:00;;;;;;;59.10;36.25;;;;;;;;;;4996313;28;20855;-34
2022/01/30 09:48:25;;;;;;;53.45;36.22;;;;;;;;;;4987749;28;20038;-33
2022/01/30 09:50:51;;;;;;;52.35;34.65;;;;;;;;;;4985173;28;20105;-37
2022/01/30 09:53:17;;;;;;;52.47;33.42;;;;;;;;;;4985112;28;20033;-33
2022/01/30 09:55:42;;;;;;;51.67;34.75;;;;;;;;;;4984030;28;20031;-31
2022/01/30 09:58:08;;;;;;;54.78;33.92;;;;;;;;;;4986342;28;20918;-35
2022/01/30 10:00:34;;;;;;;55.53;32.65;;;;;;;;;;5000849;28;20088;-31
2022/01/30 10:03:00;;;;;;;48.53;32.65;;;;;;;;;;4999104;28;20026;-34
2022/01/30 10:05:28;;;;;;;47.45;31.30;;;;;;;;;;4993291;28;20061;-33
2022/01/30 10:07:56;;;;;;;45.38;29.15;;;;;;;;;;4992760;28;20318;-31
2022/01/30 10:10:24;;;;;;;45.70;29.50;;;;;;;;;;4992452;28;20579;-39
2022/01/30 10:13:12;;;;;;;43.65;29.88;;;;;;;;;;4990641;28;20022;-34
2022/01/30 10:15:57;;;;;;;43.65;29.25;;;;;;;;;;4997111;28;20689;-32
2022/01/30 10:18:24;;;;;;;44.72;29.38;;;;;;;;;;4997551;28;20057;-33
2022/01/30 10:20:49;;;;;;;45.95;28.75;;;;;;;;;;4989910;28;20034;-35
2022/01/30 10:23:15;;;;;;;42.67;28.73;;;;;;;;;;4993866;28;20100;-38
2022/01/30 10:25:46;;;;;;;41.92;27.98;;;;;;;;;;4993565;28;20029;-36
2022/01/30 10:28:13;;;;;;;42.38;28.17;;;;;;;;;;4995899;28;20022;-32
2022/01/30 10:31:03;;;;;;;37.03;26.23;;;;;;;;;;4996639;28;20428;-36
2022/01/30 10:33:47;;;;;;;37.70;26.75;;;;;;;;;;4995039;28;20072;-31
2022/01/30 10:36:21;;;;;;;55.58;32.30;;;;;;;;;;4984498;28;20046;-35
2022/01/30 10:39:01;;;;;;;66.13;37.75;;;;;;;;;;4982908;28;20489;-32
2022/01/30 10:41:34;;;;;;;75.82;40.88;;;;;;;;;;4993725;28;20058;-32
2022/01/30 10:44:04;;;;;;;74.25;40.33;;;;;;;;;;5003768;28;20455;-31
2022/01/30 10:46:33;;;;;;;75.05;38.85;;;;;;;;;;5004232;28;20519;-35
2022/01/30 10:49:11;;;;;;;71.55;37.45;;;;;;;;;;5004295;28;20038;-32
2022/01/30 10:51:37;;;;;;;71.43;34.75;;;;;;;;;;4985527;28;20420;-36
2022/01/30 10:54:12;;;;;;;63.80;33.47;;;;;;;;;;4984348;28;20508;-32
2022/01/30 10:56:38;;;;;;;56.88;30.30;;;;;;;;;;4984640;28;20034;-34
2022/01/30 10:59:11;;;;;;;51.55;27.30;;;;;;;;;;4984465;28;20075;-33
2022/01/30 11:02:03;;;;;;;52.33;28.63;;;;;;;;;;4991133;28;20026;-33
2022/01/30 11:04:30;;;;;;;55.83;28.80;;;;;;;;;;5002492;28;20080;-35
2022/01/30 11:07:00;;;;;;;62.95;30.17;;;;;;;;;;5002498;28;20731;-32
2022/01/30 11:09:31;;;;;;;56.38;29.63;;;;;;;;;;5003034;28;20096;-36
2022/01/30 11:12:01;;;;;;;54.05;27.80;;;;;;;;;;5003682;28;20044;-33
2022/01/30 11:14:37;;;;;;;54.08;28.48;;;;;;;;;;5003012;28;20045;-34
2022/01/30 11:17:03;;;;;;;52.85;28.02;;;;;;;;;;5003732;28;20488;-32
2022/01/30 11:19:33;;;;;;;48.50;27.10;;;;;;;;;;5000845;28;20108;-33
2022/01/30 11:22:18;;;;;;;52.13;26.98;;;;;;;;;;5004007;28;20571;-34
2022/01/30 11:24:47;;;;;;;50.80;26.30;;;;;;;;;;5003654;28;20022;-33
2022/01/30 11:27:16;;;;;;;46.22;25.85;;;;;;;;;;5003551;28;20038;-33
2022/01/30 11:29:42;;;;;;;45.20;24.98;;;;;;;;;;5002942;28;20041;-33
2022/01/30 11:32:08;;;;;;;43.33;25.05;;;;;;;;;;4993004;28;20037;-34
2022/01/30 11:34:37;;;;;;;44.42;24.38;;;;;;;;;;4996118;28;20049;-31
2022/01/30 11:37:03;;;;;;;45.22;23.38;;;;;;;;;;5003378;28;20041;-36
2022/01/30 11:39:29;;;;;;;34.25;19.50;;;;;;;;;;5003389;28;20041;-37
2022/01/30 11:42:36;;;;;;;34.58;20.30;;;;;;;;;;5003129;28;20030;-36
2022/01/30 11:45:05;;;;;;;31.77;18.95;;;;;;;;;;4993542;28;20162;-36
2022/01/30 11:47:55;;;;;;;34.83;20.13;;;;;;;;;;4985939;28;20532;-37
2022/01/30 11:50:33;;;;;;;24.73;15.68;;;;;;;;;;5000179;28;20065;-32
2022/01/30 11:53:06;;;;;;;20.60;13.20;;;;;;;;;;5003061;28;20030;-38
2022/01/30 11:55:50;;;;;;;23.25;14.90;;;;;;;;;;5003401;28;20032;-33
2022/01/30 11:58:31;;;;;;;26.98;12.95;;;;;;;;;;4993650;28;20034;-34
2022/01/30 12:00:57;;;;;;;20.65;12.90;;;;;;;;;;4983494;28;20582;-33
2022/01/30 12:03:24;;;;;;;25.40;13.05;;;;;;;;;;4994063;28;20038;-34
2022/01/30 12:05:50;;;;;;;25.38;13.25;;;;;;;;;;4993869;28;20033;-34
2022/01/30 12:08:51;;;;;;;28.58;15.30;;;;;;;;;;4992032;28;20480;-31
2022/01/30 12:11:35;;;;;;;34.88;17.27;;;;;;;;;;4987577;28;20030;-32
2022/01/30 12:14:02;;;;;;;35.65;17.80;;;;;;;;;;4989643;28;20477;-35
2022/01/30 12:16:43;;;;;;;35.78;16.52;;;;;;;;;;4998424;28;20125;-32
2022/01/30 12:19:11;;;;;;;36.00;17.20;;;;;;;;;;4998948;28;20128;-33
2022/01/30 12:21:37;;;;;;;33.97;16.10;;;;;;;;;;4997367;28;20126;-35
2022/01/30 12:24:22;;;;;;;32.00;15.68;;;;;;;;;;4996253;28;20034;-36
2022/01/30 12:26:59;;;;;;;29.55;15.85;;;;;;;;;;4997365;28;20100;-36
2022/01/30 12:29:40;;;;;;;27.75;14.65;;;;;;;;;;4996836;28;20040;-34
2022/01/30 12:32:20;;;;;;;30.13;14.32;;;;;;;;;;4993092;28;20030;-34
2022/01/30 12:34:55;;;;;;;28.95;15.43;;;;;;;;;;5003595;28;20052;-33
2022/01/30 12:37:34;;;;;;;31.98;14.93;;;;;;;;;;5006708;28;20033;-35
2022/01/30 12:40:09;;;;;;;26.65;13.77;;;;;;;;;;5006204;28;20033;-32
2022/01/30 12:42:35;;;;;;;25.33;14.18;;;;;;;;;;5004718;28;20426;-32
2022/01/30 12:45:01;;;;;;;28.73;15.75;;;;;;;;;;5005455;28;20037;-32
2022/01/30 12:47:26;;;;;;;28.45;14.18;;;;;;;;;;5006654;28;20040;-33
2022/01/30 12:49:56;;;;;;;30.63;15.57;;;;;;;;;;5006083;28;20029;-31
2022/01/30 12:54:55;;;;;;;30.70;15.23;;;;;;;;;;5006362;28;20072;-34
2022/01/30 12:57:20;;;;;;;32.17;15.60;;;;;;;;;;5006146;28;20691;-36
2022/01/30 12:59:53;;;;;;;38.22;15.60;;;;;;;;;;5006035;28;20037;-37
2022/01/30 13:02:19;;;;;;;32.72;14.50;;;;;;;;;;5006186;28;20547;-30
2022/01/30 13:04:45;;;;;;;31.38;15.00;;;;;;;;;;5006001;28;20025;-33
2022/01/30 13:07:13;;;;;;;31.08;14.77;;;;;;;;;;5005710;28;20029;-33
2022/01/30 13:09:39;;;;;;;30.05;15.02;;;;;;;;;;5005704;28;20088;-35
2022/01/30 13:12:15;;;;;;;30.92;14.95;;;;;;;;;;5005788;28;20504;-32
2022/01/30 13:14:43;;;;;;;28.75;15.05;;;;;;;;;;5005852;28;20479;-33
2022/01/30 13:17:10;;;;;;;28.77;14.45;;;;;;;;;;5005924;28;20034;-32
2022/01/30 13:19:40;;;;;;;30.35;14.48;;;;;;;;;;5005909;28;20347;-31
2022/01/30 13:22:08;;;;;;;30.00;15.15;;;;;;;;;;5005717;28;20034;-31
2022/01/30 13:24:34;;;;;;;31.40;14.07;;;;;;;;;;5000636;28;20026;-36
2022/01/30 13:27:01;;;;;;;32.45;13.85;;;;;;;;;;5002274;28;20088;-32
2022/01/30 13:29:27;;;;;;;28.23;13.90;;;;;;;;;;4995927;28;20491;-34
2022/01/30 13:31:57;;;;;;;28.13;13.98;;;;;;;;;;4987331;28;20476;-33
2022/01/30 13:34:32;;;;;;;26.52;12.95;;;;;;;;;;4996847;28;20409;-32
2022/01/30 13:37:11;;;;;;;34.80;14.27;;;;;;;;;;4985548;28;20030;-35
2022/01/30 13:39:44;;;;;;;29.33;15.05;;;;;;;;;;4988079;28;20050;-35
2022/01/30 13:47:56;;;;;;;31.92;15.00;;;;;;;;;;4994870;28;20034;-34
2022/01/30 13:50:26;;;;;;;26.73;15.35;;;;;;;;;;4998024;28;20044;-33
2022/01/30 13:53:01;;;;;;;27.83;15.02;;;;;;;;;;4995410;28;20496;-32
2022/01/30 13:55:27;;;;;;;32.78;14.85;;;;;;;;;;4997096;28;20820;-30
2022/01/30 13:57:58;;;;;;;31.48;14.70;;;;;;;;;;4993881;28;20073;-37
2022/01/30 14:00:24;;;;;;;23.08;14.07;;;;;;;;;;4993563;28;20602;-30
2022/01/30 14:02:55;;;;;;;21.60;13.23;;;;;;;;;;5004535;28;20105;-36
2022/01/30 14:05:25;;;;;;;27.75;15.57;;;;;;;;;;5004380;28;20033;-34
2022/01/30 14:07:52;;;;;;;28.67;15.98;;;;;;;;;;4998072;28;20141;-31
2022/01/30 14:10:19;;;;;;;35.28;17.15;;;;;;;;;;4994244;28;20092;-36
2022/01/30 14:12:45;;;;;;;31.58;17.92;;;;;;;;;;4990423;28;20123;-34
2022/01/30 14:15:12;;;;;;;35.25;17.55;;;;;;;;;;4994328;28;20022;-37
2022/01/30 14:17:41;;;;;;;34.05;18.40;;;;;;;;;;4992326;28;20095;-35
2022/01/30 14:20:10;;;;;;;35.45;19.33;;;;;;;;;;4992553;28;20022;-36
2022/01/30 14:22:35;;;;;;;35.97;20.27;;;;;;;;;;4993085;28;20018;-36
2022/01/30 14:25:03;;;;;;;37.40;19.60;;;;;;;;;;4996870;28;20026;-35
2022/01/30 14:27:28;;;;;;;30.30;19.35;;;;;;;;;;4994879;28;20022;-34
2022/01/30 14:29:59;;;;;;;34.67;20.77;;;;;;;;;;4979781;28;20115;-36
2022/01/30 14:32:33;;;;;;;32.25;19.80;;;;;;;;;;4990984;28;20045;-34
2022/01/30 14:34:59;;;;;;;33.38;20.13;;;;;;;;;;4984819;28;20054;-37
2022/01/30 14:37:25;;;;;;;34.17;19.90;;;;;;;;;;4984862;28;20469;-36
2022/01/30 14:39:57;;;;;;;29.85;19.30;;;;;;;;;;4985022;28;20413;-37
2022/01/30 14:42:23;;;;;;;34.40;18.90;;;;;;;;;;4984829;28;20030;-34
2022/01/30 14:44:49;;;;;;;31.13;17.92;;;;;;;;;;4996704;28;20049;-32
2022/01/30 14:47:14;;;;;;;30.95;18.25;;;;;;;;;;5000326;28;20490;-32
2022/01/30 14:49:41;;;;;;;31.00;18.30;;;;;;;;;;5002833;28;20029;-32
2022/01/30 14:52:07;;;;;;;28.08;16.58;;;;;;;;;;4989602;28;20119;-36
2022/01/30 14:54:33;;;;;;;28.92;16.67;;;;;;;;;;4984773;28;20029;-35
2022/01/30 14:56:58;;;;;;;32.75;17.50;;;;;;;;;;4984745;28;20030;-35
2022/01/30 14:59:24;;;;;;;27.25;15.73;;;;;;;;;;4984663;28;20092;-33
2022/01/30 15:01:50;;;;;;;25.77;15.68;;;;;;;;;;4984577;28;20461;-35
2022/01/30 15:04:15;;;;;;;27.58;16.42;;;;;;;;;;4984241;28;20037;-33
2022/01/30 15:06:41;;;;;;;27.13;15.35;;;;;;;;;;4992590;28;20034;-38
2022/01/30 15:09:07;;;;;;;27.85;16.05;;;;;;;;;;4995349;28;20934;-37
2022/01/30 15:11:32;;;;;;;29.52;17.70;;;;;;;;;;4995773;28;20034;-34
2022/01/30 15:13:58;;;;;;;31.15;16.83;;;;;;;;;;4990990;28;20037;-32
2022/01/30 15:16:39;;;;;;;29.42;17.25;;;;;;;;;;4994161;28;20034;-31
2022/01/30 15:19:06;;;;;;;33.50;18.08;;;;;;;;;;4991113;28;20042;-33
2022/01/30 15:21:31;;;;;;;29.48;17.65;;;;;;;;;;4993713;28;20026;-37
2022/01/30 15:23:57;;;;;;;33.60;18.02;;;;;;;;;;4995026;28;20034;-35
2022/01/30 15:26:22;;;;;;;29.10;16.50;;;;;;;;;;4994670;28;20437;-30
2022/01/30 15:28:51;;;;;;;28.27;17.05;;;;;;;;;;4994467;28;20037;-33
2022/01/30 15:31:17;;;;;;;28.42;17.17;;;;;;;;;;4992038;28;20053;-34
2022/01/30 15:33:43;;;;;;;26.55;16.90;;;;;;;;;;4998535;28;20594;-39
2022/01/30 15:36:09;;;;;;;36.30;17.85;;;;;;;;;;4988697;28;20137;-33
2022/01/30 15:38:34;;;;;;;33.35;16.98;;;;;;;;;;4991407;28;20022;-31